sensor_id;sensor_type;location;lat;lon;timestamp;temperature;humidity
16491;DHT22;8356;51.214;3.270;2022-07-01T00:00:59;435.20;2355.20
16491;DHT22;8356;51.214;3.270;2022-07-01T00:03:24;435.20;2355.20
16491;DHT22;8356;51.214;3.270;2022-07-01T00:05:50;435.20;2355.20
16491;DHT22;8356;51.214;3.270;2022-07-01T00:08:16;410.50;2355.20
16491;DHT22;8356;51.214;3.270;2022-07-01T00:10:42;410.50;2355.20
16491;DHT22;8356;51.214;3.270;2022-07-01T00:13:07;410.50;2355.20
16491;DHT22;8356;51.214;3.270;2022-07-01T00:15:33;410.30;2355.20
16491;DHT22;8356;51.214;3.270;2022-07-01T00:17:59;410.30;2355.20
16491;DHT22;8356;51.214;3.270;2022-07-01T00:20:24;410.30;2355.20
16491;DHT22;8356;51.214;3.270;2022-07-01T00:22:50;410.50;2355.20
16491;DHT22;8356;51.214;3.270;2022-07-01T00:25:16;410.50;2355.20
16491;DHT22;8356;51.214;3.270;2022-07-01T00:27:42;410.50;2355.20
16491;DHT22;8356;51.214;3.270;2022-07-01T00:30:09;410.50;2355.20
16491;DHT22;8356;51.214;3.270;2022-07-01T00:32:36;410.50;2355.20
16491;DHT22;8356;51.214;3.270;2022-07-01T00:35:01;410.50;2355.20
16491;DHT22;8356;51.214;3.270;2022-07-01T00:37:27;410.50;2355.20
16491;DHT22;8356;51.214;3.270;2022-07-01T00:39:53;410.30;2355.20
16491;DHT22;8356;51.214;3.270;2022-07-01T00:42:19;410.30;2355.20
16491;DHT22;8356;51.214;3.270;2022-07-01T00:44:44;410.20;2355.20
16491;DHT22;8356;51.214;3.270;2022-07-01T00:47:11;410.20;2355.20
16491;DHT22;8356;51.214;3.270;2022-07-01T00:49:38;410.10;2355.20
16491;DHT22;8356;51.214;3.270;2022-07-01T00:52:06;410.10;2355.20
16491;DHT22;8356;51.214;3.270;2022-07-01T00:54:35;410.00;2355.20
16491;DHT22;8356;51.214;3.270;2022-07-01T00:57:11;409.90;2355.20
16491;DHT22;8356;51.214;3.270;2022-07-01T00:59:40;409.90;2355.20
16491;DHT22;8356;51.214;3.270;2022-07-01T01:02:07;410.00;2355.20
16491;DHT22;8356;51.214;3.270;2022-07-01T01:04:33;409.90;2355.20
16491;DHT22;8356;51.214;3.270;2022-07-01T01:07:00;410.00;2355.20
16491;DHT22;8356;51.214;3.270;2022-07-01T01:09:28;410.00;2355.20
16491;DHT22;8356;51.214;3.270;2022-07-01T01:11:54;410.50;2355.20
16491;DHT22;8356;51.214;3.270;2022-07-01T01:14:20;409.80;2355.20
16491;DHT22;8356;51.214;3.270;2022-07-01T01:16:46;409.80;2355.20
16491;DHT22;8356;51.214;3.270;2022-07-01T01:19:12;409.70;2355.20
16491;DHT22;8356;51.214;3.270;2022-07-01T01:21:38;409.70;2355.20
16491;DHT22;8356;51.214;3.270;2022-07-01T01:24:05;409.80;2355.20
16491;DHT22;8356;51.214;3.270;2022-07-01T01:26:32;409.70;2355.20
16491;DHT22;8356;51.214;3.270;2022-07-01T01:28:58;409.70;2355.20
16491;DHT22;8356;51.214;3.270;2022-07-01T01:31:31;409.60;2355.20
16491;DHT22;8356;51.214;3.270;2022-07-01T01:33:58;384.70;2329.60
16491;DHT22;8356;51.214;3.270;2022-07-01T01:36:24;384.60;2329.60
16491;DHT22;8356;51.214;3.270;2022-07-01T01:38:50;384.60;2329.60
16491;DHT22;8356;51.214;3.270;2022-07-01T01:41:16;384.70;2329.60
16491;DHT22;8356;51.214;3.270;2022-07-01T01:43:41;384.70;2329.60
16491;DHT22;8356;51.214;3.270;2022-07-01T01:46:07;384.70;2329.60
16491;DHT22;8356;51.214;3.270;2022-07-01T01:48:32;384.70;2329.60
16491;DHT22;8356;51.214;3.270;2022-07-01T01:50:58;384.60;2329.60
16491;DHT22;8356;51.214;3.270;2022-07-01T01:53:24;384.60;2329.60
16491;DHT22;8356;51.214;3.270;2022-07-01T01:55:50;384.60;2329.60
16491;DHT22;8356;51.214;3.270;2022-07-01T01:58:16;384.60;2329.60
16491;DHT22;8356;51.214;3.270;2022-07-01T02:00:41;384.50;2329.60
16491;DHT22;8356;51.214;3.270;2022-07-01T02:03:07;384.60;2329.60
16491;DHT22;8356;51.214;3.270;2022-07-01T02:05:33;384.60;2329.60
16491;DHT22;8356;51.214;3.270;2022-07-01T02:08:01;384.50;2329.60
16491;DHT22;8356;51.214;3.270;2022-07-01T02:10:27;384.40;2329.60
16491;DHT22;8356;51.214;3.270;2022-07-01T02:12:52;384.40;2329.60
16491;DHT22;8356;51.214;3.270;2022-07-01T02:15:18;384.50;2329.60
16491;DHT22;8356;51.214;3.270;2022-07-01T02:17:44;384.40;2329.60
16491;DHT22;8356;51.214;3.270;2022-07-01T02:20:10;384.40;2329.60
16491;DHT22;8356;51.214;3.270;2022-07-01T02:22:35;384.50;2329.60
16491;DHT22;8356;51.214;3.270;2022-07-01T02:25:01;384.40;2329.60
16491;DHT22;8356;51.214;3.270;2022-07-01T02:27:27;384.40;2329.60
16491;DHT22;8356;51.214;3.270;2022-07-01T02:29:52;384.50;2329.60
16491;DHT22;8356;51.214;3.270;2022-07-01T02:32:18;384.50;2329.60
16491;DHT22;8356;51.214;3.270;2022-07-01T02:34:44;384.50;2329.60
16491;DHT22;8356;51.214;3.270;2022-07-01T02:37:09;384.50;2329.60
16491;DHT22;8356;51.214;3.270;2022-07-01T02:39:35;384.50;2329.60
16491;DHT22;8356;51.214;3.270;2022-07-01T02:42:01;384.40;2329.60
16491;DHT22;8356;51.214;3.270;2022-07-01T02:44:45;384.50;2329.60
16491;DHT22;8356;51.214;3.270;2022-07-01T02:47:10;384.40;2329.60
16491;DHT22;8356;51.214;3.270;2022-07-01T02:49:36;384.30;2329.60
16491;DHT22;8356;51.214;3.270;2022-07-01T02:52:02;384.40;2329.60
16491;DHT22;8356;51.214;3.270;2022-07-01T02:54:27;384.40;2329.60
16491;DHT22;8356;51.214;3.270;2022-07-01T02:56:54;384.40;2329.60
16491;DHT22;8356;51.214;3.270;2022-07-01T02:59:20;384.40;2329.60
16491;DHT22;8356;51.214;3.270;2022-07-01T03:01:45;384.40;2329.60
16491;DHT22;8356;51.214;3.270;2022-07-01T03:04:11;384.50;2329.60
16491;DHT22;8356;51.214;3.270;2022-07-01T03:06:37;384.40;2329.60
16491;DHT22;8356;51.214;3.270;2022-07-01T03:09:03;384.50;2329.60
16491;DHT22;8356;51.214;3.270;2022-07-01T03:11:29;384.50;2329.60
16491;DHT22;8356;51.214;3.270;2022-07-01T03:13:54;384.50;2329.60
16491;DHT22;8356;51.214;3.270;2022-07-01T03:16:20;384.40;2329.60
16491;DHT22;8356;51.214;3.270;2022-07-01T03:18:45;384.50;2329.60
16491;DHT22;8356;51.214;3.270;2022-07-01T03:21:11;384.40;2329.60
16491;DHT22;8356;51.214;3.270;2022-07-01T03:23:37;384.40;2329.60
16491;DHT22;8356;51.214;3.270;2022-07-01T03:26:02;384.40;2329.60
16491;DHT22;8356;51.214;3.270;2022-07-01T03:28:28;384.30;2329.60
16491;DHT22;8356;51.214;3.270;2022-07-01T03:30:53;384.30;2329.60
16491;DHT22;8356;51.214;3.270;2022-07-01T03:33:19;384.20;2329.60
16491;DHT22;8356;51.214;3.270;2022-07-01T03:35:45;384.30;2329.60
16491;DHT22;8356;51.214;3.270;2022-07-01T03:38:11;384.40;2329.60
16491;DHT22;8356;51.214;3.270;2022-07-01T03:40:37;384.40;2329.60
16491;DHT22;8356;51.214;3.270;2022-07-01T03:43:03;384.30;2329.60
16491;DHT22;8356;51.214;3.270;2022-07-01T03:45:29;384.30;2329.60
16491;DHT22;8356;51.214;3.270;2022-07-01T03:47:55;384.30;2329.60
16491;DHT22;8356;51.214;3.270;2022-07-01T03:50:22;384.20;2329.60
16491;DHT22;8356;51.214;3.270;2022-07-01T03:52:48;384.20;2329.60
16491;DHT22;8356;51.214;3.270;2022-07-01T03:55:14;384.10;2329.60
16491;DHT22;8356;51.214;3.270;2022-07-01T03:57:41;384.20;2329.60
16491;DHT22;8356;51.214;3.270;2022-07-01T04:00:07;384.20;2329.60
16491;DHT22;8356;51.214;3.270;2022-07-01T04:02:33;384.20;2329.60
16491;DHT22;8356;51.214;3.270;2022-07-01T04:04:59;384.10;2329.60
16491;DHT22;8356;51.214;3.270;2022-07-01T04:07:25;384.10;2329.60
16491;DHT22;8356;51.214;3.270;2022-07-01T04:09:52;384.10;2329.60
16491;DHT22;8356;51.214;3.270;2022-07-01T04:12:17;384.10;2329.60
16491;DHT22;8356;51.214;3.270;2022-07-01T04:14:44;384.10;2329.60
16491;DHT22;8356;51.214;3.270;2022-07-01T04:17:10;384.10;2329.60
16491;DHT22;8356;51.214;3.270;2022-07-01T04:19:36;384.10;2329.60
16491;DHT22;8356;51.214;3.270;2022-07-01T04:22:02;384.20;2329.60
16491;DHT22;8356;51.214;3.270;2022-07-01T04:24:46;384.10;2329.60
16491;DHT22;8356;51.214;3.270;2022-07-01T04:27:12;384.10;2329.60
16491;DHT22;8356;51.214;3.270;2022-07-01T04:29:37;384.20;2329.60
16491;DHT22;8356;51.214;3.270;2022-07-01T04:32:03;384.20;2329.60
16491;DHT22;8356;51.214;3.270;2022-07-01T04:34:29;384.10;2329.60
16491;DHT22;8356;51.214;3.270;2022-07-01T04:36:54;384.10;2329.60
16491;DHT22;8356;51.214;3.270;2022-07-01T04:39:21;384.10;2329.60
16491;DHT22;8356;51.214;3.270;2022-07-01T04:41:47;384.10;2329.60
16491;DHT22;8356;51.214;3.270;2022-07-01T04:44:25;384.10;2329.60
16491;DHT22;8356;51.214;3.270;2022-07-01T04:46:51;384.10;2329.60
16491;DHT22;8356;51.214;3.270;2022-07-01T04:49:16;384.20;2329.60
16491;DHT22;8356;51.214;3.270;2022-07-01T04:51:42;384.20;2329.60
16491;DHT22;8356;51.214;3.270;2022-07-01T04:54:08;384.20;2329.60
16491;DHT22;8356;51.214;3.270;2022-07-01T04:56:35;384.20;2329.60
16491;DHT22;8356;51.214;3.270;2022-07-01T04:59:01;384.20;2329.60
16491;DHT22;8356;51.214;3.270;2022-07-01T05:01:27;384.30;2329.60
16491;DHT22;8356;51.214;3.270;2022-07-01T05:03:54;384.40;2329.60
16491;DHT22;8356;51.214;3.270;2022-07-01T05:06:20;384.40;2329.60
16491;DHT22;8356;51.214;3.270;2022-07-01T05:08:45;384.40;2329.60
16491;DHT22;8356;51.214;3.270;2022-07-01T05:11:11;384.40;2329.60
16491;DHT22;8356;51.214;3.270;2022-07-01T05:13:37;384.40;2329.60
16491;DHT22;8356;51.214;3.270;2022-07-01T05:16:03;384.40;2329.60
16491;DHT22;8356;51.214;3.270;2022-07-01T05:18:29;384.70;2329.60
16491;DHT22;8356;51.214;3.270;2022-07-01T05:21:13;384.50;2329.60
16491;DHT22;8356;51.214;3.270;2022-07-01T05:23:57;384.60;2329.60
16491;DHT22;8356;51.214;3.270;2022-07-01T05:26:23;384.60;2329.60
16491;DHT22;8356;51.214;3.270;2022-07-01T05:28:52;384.60;2329.60
16491;DHT22;8356;51.214;3.270;2022-07-01T05:31:17;384.60;2329.60
16491;DHT22;8356;51.214;3.270;2022-07-01T05:33:43;384.60;2329.60
16491;DHT22;8356;51.214;3.270;2022-07-01T05:36:09;384.60;2329.60
16491;DHT22;8356;51.214;3.270;2022-07-01T05:38:35;384.70;2329.60
16491;DHT22;8356;51.214;3.270;2022-07-01T05:41:01;384.80;2329.60
16491;DHT22;8356;51.214;3.270;2022-07-01T05:43:26;384.80;2329.60
16491;DHT22;8356;51.214;3.270;2022-07-01T05:45:52;384.90;2329.60
16491;DHT22;8356;51.214;3.270;2022-07-01T05:48:18;384.90;2329.60
16491;DHT22;8356;51.214;3.270;2022-07-01T05:50:43;384.90;2329.60
16491;DHT22;8356;51.214;3.270;2022-07-01T05:53:09;409.60;2355.20
16491;DHT22;8356;51.214;3.270;2022-07-01T05:55:35;409.60;2355.20
16491;DHT22;8356;51.214;3.270;2022-07-01T05:58:01;409.60;2355.20
16491;DHT22;8356;51.214;3.270;2022-07-01T06:00:27;409.70;2355.20
16491;DHT22;8356;51.214;3.270;2022-07-01T06:02:53;409.60;2355.20
16491;DHT22;8356;51.214;3.270;2022-07-01T06:05:19;409.80;2355.20
16491;DHT22;8356;51.214;3.270;2022-07-01T06:07:45;409.80;2355.20
16491;DHT22;8356;51.214;3.270;2022-07-01T06:10:11;409.80;2355.20
16491;DHT22;8356;51.214;3.270;2022-07-01T06:12:40;409.90;2355.20
16491;DHT22;8356;51.214;3.270;2022-07-01T06:15:08;410.00;2355.20
16491;DHT22;8356;51.214;3.270;2022-07-01T06:17:38;410.10;2355.20
16491;DHT22;8356;51.214;3.270;2022-07-01T06:20:04;410.10;2355.20
16491;DHT22;8356;51.214;3.270;2022-07-01T06:22:30;410.10;2355.20
16491;DHT22;8356;51.214;3.270;2022-07-01T06:24:56;410.10;2355.20
16491;DHT22;8356;51.214;3.270;2022-07-01T06:27:22;410.20;2355.20
16491;DHT22;8356;51.214;3.270;2022-07-01T06:29:49;410.20;2355.20
16491;DHT22;8356;51.214;3.270;2022-07-01T06:32:15;410.10;2355.20
16491;DHT22;8356;51.214;3.270;2022-07-01T06:34:41;410.20;2355.20
16491;DHT22;8356;51.214;3.270;2022-07-01T06:37:06;410.30;2355.20
16491;DHT22;8356;51.214;3.270;2022-07-01T06:39:32;410.30;2355.20
16491;DHT22;8356;51.214;3.270;2022-07-01T06:41:57;410.30;2355.20
16491;DHT22;8356;51.214;3.270;2022-07-01T06:44:23;410.40;2355.20
16491;DHT22;8356;51.214;3.270;2022-07-01T06:46:49;435.20;2355.20
16491;DHT22;8356;51.214;3.270;2022-07-01T06:49:14;435.20;2355.20
16491;DHT22;8356;51.214;3.270;2022-07-01T06:51:41;435.20;2355.20
16491;DHT22;8356;51.214;3.270;2022-07-01T06:54:06;435.30;2355.20
16491;DHT22;8356;51.214;3.270;2022-07-01T06:56:32;435.40;2355.20
16491;DHT22;8356;51.214;3.270;2022-07-01T06:58:58;435.50;2355.20
16491;DHT22;8356;51.214;3.270;2022-07-01T07:01:23;435.60;2355.20
16491;DHT22;8356;51.214;3.270;2022-07-01T07:03:50;435.60;2355.20
16491;DHT22;8356;51.214;3.270;2022-07-01T07:06:15;435.80;2355.20
16491;DHT22;8356;51.214;3.270;2022-07-01T07:08:41;435.80;2355.20
16491;DHT22;8356;51.214;3.270;2022-07-01T07:11:07;435.90;2355.20
16491;DHT22;8356;51.214;3.270;2022-07-01T07:13:35;436.00;2355.20
16491;DHT22;8356;51.214;3.270;2022-07-01T07:16:01;436.10;2355.20
16491;DHT22;8356;51.214;3.270;2022-07-01T07:18:27;460.80;2380.80
16491;DHT22;8356;51.214;3.270;2022-07-01T07:20:53;460.90;2380.80
16491;DHT22;8356;51.214;3.270;2022-07-01T07:23:18;461.10;2380.80
16491;DHT22;8356;51.214;3.270;2022-07-01T07:25:44;461.30;2380.80
16491;DHT22;8356;51.214;3.270;2022-07-01T07:28:10;461.50;2380.80
16491;DHT22;8356;51.214;3.270;2022-07-01T07:30:36;461.40;2380.80
16491;DHT22;8356;51.214;3.270;2022-07-01T07:33:01;461.40;2380.80
16491;DHT22;8356;51.214;3.270;2022-07-01T07:35:27;461.50;2380.80
16491;DHT22;8356;51.214;3.270;2022-07-01T07:37:52;461.70;2380.80
16491;DHT22;8356;51.214;3.270;2022-07-01T07:40:18;486.50;2380.80
16491;DHT22;8356;51.214;3.270;2022-07-01T07:42:45;486.70;2380.80
16491;DHT22;8356;51.214;3.270;2022-07-01T07:45:12;487.00;2380.80
16491;DHT22;8356;51.214;3.270;2022-07-01T07:47:43;487.10;2380.80
16491;DHT22;8356;51.214;3.270;2022-07-01T07:50:12;487.10;2380.80
16491;DHT22;8356;51.214;3.270;2022-07-01T07:52:39;487.00;2380.80
16491;DHT22;8356;51.214;3.270;2022-07-01T07:55:06;512.20;2380.80
16491;DHT22;8356;51.214;3.270;2022-07-01T07:57:32;487.20;2380.80
16491;DHT22;8356;51.214;3.270;2022-07-01T07:59:59;512.00;2380.80
16491;DHT22;8356;51.214;3.270;2022-07-01T08:02:25;512.20;2380.80
16491;DHT22;8356;51.214;3.270;2022-07-01T08:04:50;512.30;2380.80
16491;DHT22;8356;51.214;3.270;2022-07-01T08:07:16;512.30;2380.80
16491;DHT22;8356;51.214;3.270;2022-07-01T08:09:41;512.30;2380.80
16491;DHT22;8356;51.214;3.270;2022-07-01T08:12:12;512.50;2380.80
16491;DHT22;8356;51.214;3.270;2022-07-01T08:14:38;512.50;2380.80
16491;DHT22;8356;51.214;3.270;2022-07-01T08:17:03;512.70;2380.80
16491;DHT22;8356;51.214;3.270;2022-07-01T08:19:29;512.70;2380.80
16491;DHT22;8356;51.214;3.270;2022-07-01T08:21:55;512.90;2380.80
16491;DHT22;8356;51.214;3.270;2022-07-01T08:24:21;537.70;2406.40
16491;DHT22;8356;51.214;3.270;2022-07-01T08:26:47;537.90;2406.40
16491;DHT22;8356;51.214;3.270;2022-07-01T08:29:13;537.60;2406.40
16491;DHT22;8356;51.214;3.270;2022-07-01T08:31:39;512.90;2380.80
16491;DHT22;8356;51.214;3.270;2022-07-01T08:34:05;512.50;2380.80
16491;DHT22;8356;51.214;3.270;2022-07-01T08:36:32;512.50;2380.80
16491;DHT22;8356;51.214;3.270;2022-07-01T08:38:58;512.60;2380.80
16491;DHT22;8356;51.214;3.270;2022-07-01T08:41:24;537.60;2406.40
16491;DHT22;8356;51.214;3.270;2022-07-01T08:43:50;537.80;2406.40
16491;DHT22;8356;51.214;3.270;2022-07-01T08:46:16;538.10;2406.40
16491;DHT22;8356;51.214;3.270;2022-07-01T08:48:42;537.90;2406.40
16491;DHT22;8356;51.214;3.270;2022-07-01T08:51:08;538.10;2406.40
16491;DHT22;8356;51.214;3.270;2022-07-01T08:53:34;538.40;2406.40
16491;DHT22;8356;51.214;3.270;2022-07-01T08:56:01;563.40;2432.00
16491;DHT22;8356;51.214;3.270;2022-07-01T08:58:47;563.70;2432.00
16491;DHT22;8356;51.214;3.270;2022-07-01T09:01:16;564.00;2432.00
16491;DHT22;8356;51.214;3.270;2022-07-01T09:03:43;563.90;2432.00
16491;DHT22;8356;51.214;3.270;2022-07-01T09:06:38;563.60;2432.00
16491;DHT22;8356;51.214;3.270;2022-07-01T09:09:20;563.50;2432.00
16491;DHT22;8356;51.214;3.270;2022-07-01T09:11:51;538.50;2406.40
16491;DHT22;8356;51.214;3.270;2022-07-01T09:14:22;538.10;2406.40
16491;DHT22;8356;51.214;3.270;2022-07-01T09:16:51;537.80;2406.40
16491;DHT22;8356;51.214;3.270;2022-07-01T09:19:19;537.70;2406.40
16491;DHT22;8356;51.214;3.270;2022-07-01T09:21:52;538.10;2406.40
16491;DHT22;8356;51.214;3.270;2022-07-01T09:24:35;538.10;2406.40
16491;DHT22;8356;51.214;3.270;2022-07-01T09:27:06;563.40;2432.00
16491;DHT22;8356;51.214;3.270;2022-07-01T09:32:08;563.60;2432.00
16491;DHT22;8356;51.214;3.270;2022-07-01T09:34:52;563.50;2432.00
16491;DHT22;8356;51.214;3.270;2022-07-01T09:37:22;563.80;2432.00
16491;DHT22;8356;51.214;3.270;2022-07-01T09:39:53;588.80;2432.00
16491;DHT22;8356;51.214;3.270;2022-07-01T09:42:22;589.00;2432.00
16491;DHT22;8356;51.214;3.270;2022-07-01T09:44:58;564.00;2432.00
16491;DHT22;8356;51.214;3.270;2022-07-01T09:47:25;563.70;2432.00
16491;DHT22;8356;51.214;3.270;2022-07-01T09:49:52;563.40;2432.00
16491;DHT22;8356;51.214;3.270;2022-07-01T09:52:19;563.30;2432.00
16491;DHT22;8356;51.214;3.270;2022-07-01T09:54:45;563.30;2432.00
16491;DHT22;8356;51.214;3.270;2022-07-01T09:57:18;538.50;2406.40
16491;DHT22;8356;51.214;3.270;2022-07-01T09:59:44;538.30;2406.40
16491;DHT22;8356;51.214;3.270;2022-07-01T10:02:11;538.30;2406.40
16491;DHT22;8356;51.214;3.270;2022-07-01T10:04:39;538.50;2406.40
16491;DHT22;8356;51.214;3.270;2022-07-01T10:10:10;564.00;2432.00
16491;DHT22;8356;51.214;3.270;2022-07-01T10:12:43;589.30;2432.00
16491;DHT22;8356;51.214;3.270;2022-07-01T10:15:10;614.40;2432.00
16491;DHT22;8356;51.214;3.270;2022-07-01T10:17:42;589.70;2432.00
16491;DHT22;8356;51.214;3.270;2022-07-01T10:20:19;589.30;2432.00
16491;DHT22;8356;51.214;3.270;2022-07-01T10:22:46;564.10;2432.00
16491;DHT22;8356;51.214;3.270;2022-07-01T10:25:31;563.60;2432.00
16491;DHT22;8356;51.214;3.270;2022-07-01T10:35:52;537.90;2406.40
16491;DHT22;8356;51.214;3.270;2022-07-01T10:38:18;537.80;2406.40
16491;DHT22;8356;51.214;3.270;2022-07-01T10:40:45;537.80;2406.40
16491;DHT22;8356;51.214;3.270;2022-07-01T10:43:15;538.00;2406.40
16491;DHT22;8356;51.214;3.270;2022-07-01T10:45:45;537.80;2406.40
16491;DHT22;8356;51.214;3.270;2022-07-01T10:48:21;537.70;2406.40
16491;DHT22;8356;51.214;3.270;2022-07-01T10:50:47;512.70;2380.80
16491;DHT22;8356;51.214;3.270;2022-07-01T10:53:13;512.30;2380.80
16491;DHT22;8356;51.214;3.270;2022-07-01T10:55:50;512.10;2380.80
16491;DHT22;8356;51.214;3.270;2022-07-01T10:58:17;487.10;2380.80
16491;DHT22;8356;51.214;3.270;2022-07-01T11:00:46;486.80;2380.80
16491;DHT22;8356;51.214;3.270;2022-07-01T11:03:22;486.60;2380.80
16491;DHT22;8356;51.214;3.270;2022-07-01T11:05:53;486.50;2380.80
16491;DHT22;8356;51.214;3.270;2022-07-01T11:08:21;486.60;2380.80
16491;DHT22;8356;51.214;3.270;2022-07-01T11:10:51;486.90;2380.80
16491;DHT22;8356;51.214;3.270;2022-07-01T11:13:17;487.00;2380.80
16491;DHT22;8356;51.214;3.270;2022-07-01T11:15:48;512.00;2380.80
16491;DHT22;8356;51.214;3.270;2022-07-01T11:18:15;512.50;2380.80
16491;DHT22;8356;51.214;3.270;2022-07-01T11:20:41;537.90;2406.40
16491;DHT22;8356;51.214;3.270;2022-07-01T11:23:07;563.30;2432.00
16491;DHT22;8356;51.214;3.270;2022-07-01T11:25:33;563.70;2432.00
16491;DHT22;8356;51.214;3.270;2022-07-01T11:27:58;589.00;2432.00
16491;DHT22;8356;51.214;3.270;2022-07-01T11:30:26;564.10;2432.00
16491;DHT22;8356;51.214;3.270;2022-07-01T11:32:54;563.80;2432.00
16491;DHT22;8356;51.214;3.270;2022-07-01T11:35:25;563.70;2432.00
16491;DHT22;8356;51.214;3.270;2022-07-01T11:38:14;563.60;2432.00
16491;DHT22;8356;51.214;3.270;2022-07-01T11:41:00;563.40;2432.00
16491;DHT22;8356;51.214;3.270;2022-07-01T11:43:32;538.50;2406.40
16491;DHT22;8356;51.214;3.270;2022-07-01T11:46:04;538.30;2406.40
16491;DHT22;8356;51.214;3.270;2022-07-01T11:48:37;538.30;2406.40
16491;DHT22;8356;51.214;3.270;2022-07-01T11:51:08;538.10;2406.40
16491;DHT22;8356;51.214;3.270;2022-07-01T11:53:34;538.10;2406.40
16491;DHT22;8356;51.214;3.270;2022-07-01T11:56:00;538.10;2406.40
16491;DHT22;8356;51.214;3.270;2022-07-01T11:58:43;538.20;2406.40
16491;DHT22;8356;51.214;3.270;2022-07-01T12:01:09;538.20;2406.40
16491;DHT22;8356;51.214;3.270;2022-07-01T12:03:36;538.10;2406.40
16491;DHT22;8356;51.214;3.270;2022-07-01T12:06:03;537.90;2406.40
16491;DHT22;8356;51.214;3.270;2022-07-01T12:08:29;537.70;2406.40
16491;DHT22;8356;51.214;3.270;2022-07-01T12:10:55;537.60;2406.40
16491;DHT22;8356;51.214;3.270;2022-07-01T12:13:24;512.90;2380.80
16491;DHT22;8356;51.214;3.270;2022-07-01T12:15:50;512.80;2380.80
16491;DHT22;8356;51.214;3.270;2022-07-01T12:18:16;512.80;2380.80
16491;DHT22;8356;51.214;3.270;2022-07-01T12:20:49;512.80;2380.80
16491;DHT22;8356;51.214;3.270;2022-07-01T12:23:15;512.70;2380.80
16491;DHT22;8356;51.214;3.270;2022-07-01T12:25:49;512.80;2380.80
16491;DHT22;8356;51.214;3.270;2022-07-01T12:28:33;512.90;2380.80
16491;DHT22;8356;51.214;3.270;2022-07-01T12:31:06;537.60;2406.40
16491;DHT22;8356;51.214;3.270;2022-07-01T12:33:34;512.90;2380.80
16491;DHT22;8356;51.214;3.270;2022-07-01T12:36:02;512.90;2380.80
16491;DHT22;8356;51.214;3.270;2022-07-01T12:38:28;512.90;2380.80
16491;DHT22;8356;51.214;3.270;2022-07-01T12:40:54;512.90;2380.80
16491;DHT22;8356;51.214;3.270;2022-07-01T12:43:30;537.70;2406.40
16491;DHT22;8356;51.214;3.270;2022-07-01T12:46:00;537.70;2406.40
16491;DHT22;8356;51.214;3.270;2022-07-01T12:48:27;537.60;2406.40
16491;DHT22;8356;51.214;3.270;2022-07-01T12:50:57;512.90;2380.80
16491;DHT22;8356;51.214;3.270;2022-07-01T12:53:24;537.60;2406.40
16491;DHT22;8356;51.214;3.270;2022-07-01T12:55:53;537.70;2406.40
16491;DHT22;8356;51.214;3.270;2022-07-01T12:58:22;537.70;2406.40
16491;DHT22;8356;51.214;3.270;2022-07-01T13:00:54;537.70;2406.40
16491;DHT22;8356;51.214;3.270;2022-07-01T13:03:22;537.60;2406.40
16491;DHT22;8356;51.214;3.270;2022-07-01T13:05:49;537.70;2406.40
16491;DHT22;8356;51.214;3.270;2022-07-01T13:08:15;537.70;2406.40
16491;DHT22;8356;51.214;3.270;2022-07-01T13:10:42;537.80;2406.40
16491;DHT22;8356;51.214;3.270;2022-07-01T13:13:08;537.80;2406.40
16491;DHT22;8356;51.214;3.270;2022-07-01T13:15:34;537.80;2406.40
16491;DHT22;8356;51.214;3.270;2022-07-01T13:18:00;512.80;2380.80
16491;DHT22;8356;51.214;3.270;2022-07-01T13:20:26;512.60;2380.80
16491;DHT22;8356;51.214;3.270;2022-07-01T13:22:52;512.30;2380.80
16491;DHT22;8356;51.214;3.270;2022-07-01T13:25:18;512.30;2380.80
16491;DHT22;8356;51.214;3.270;2022-07-01T13:27:44;512.50;2380.80
16491;DHT22;8356;51.214;3.270;2022-07-01T13:30:11;512.50;2380.80
16491;DHT22;8356;51.214;3.270;2022-07-01T13:32:37;512.70;2380.80
16491;DHT22;8356;51.214;3.270;2022-07-01T13:35:05;512.90;2380.80
16491;DHT22;8356;51.214;3.270;2022-07-01T13:37:31;512.90;2380.80
16491;DHT22;8356;51.214;3.270;2022-07-01T13:39:56;512.80;2380.80
16491;DHT22;8356;51.214;3.270;2022-07-01T13:42:22;537.60;2406.40
16491;DHT22;8356;51.214;3.270;2022-07-01T13:44:47;537.70;2406.40
16491;DHT22;8356;51.214;3.270;2022-07-01T13:47:14;537.80;2406.40
16491;DHT22;8356;51.214;3.270;2022-07-01T13:49:41;537.80;2406.40
16491;DHT22;8356;51.214;3.270;2022-07-01T13:52:09;538.00;2406.40
16491;DHT22;8356;51.214;3.270;2022-07-01T13:54:35;538.30;2406.40
16491;DHT22;8356;51.214;3.270;2022-07-01T13:57:01;538.50;2406.40
16491;DHT22;8356;51.214;3.270;2022-07-01T13:59:27;563.40;2432.00
16491;DHT22;8356;51.214;3.270;2022-07-01T14:01:52;563.50;2432.00
16491;DHT22;8356;51.214;3.270;2022-07-01T14:04:18;563.70;2432.00
16491;DHT22;8356;51.214;3.270;2022-07-01T14:06:44;563.90;2432.00
16491;DHT22;8356;51.214;3.270;2022-07-01T14:09:09;564.10;2432.00
16491;DHT22;8356;51.214;3.270;2022-07-01T14:11:35;588.80;2432.00
16491;DHT22;8356;51.214;3.270;2022-07-01T14:14:01;588.80;2432.00
16491;DHT22;8356;51.214;3.270;2022-07-01T14:16:26;589.00;2432.00
16491;DHT22;8356;51.214;3.270;2022-07-01T14:18:55;589.20;2432.00
16491;DHT22;8356;51.214;3.270;2022-07-01T14:21:22;589.50;2432.00
16491;DHT22;8356;51.214;3.270;2022-07-01T14:23:48;589.60;2432.00
16491;DHT22;8356;51.214;3.270;2022-07-01T14:26:14;589.60;2432.00
16491;DHT22;8356;51.214;3.270;2022-07-01T14:28:39;589.50;2432.00
16491;DHT22;8356;51.214;3.270;2022-07-01T14:31:06;589.50;2432.00
16491;DHT22;8356;51.214;3.270;2022-07-01T14:33:32;589.50;2432.00
16491;DHT22;8356;51.214;3.270;2022-07-01T14:35:58;589.70;2432.00
16491;DHT22;8356;51.214;3.270;2022-07-01T14:38:24;614.40;2432.00
16491;DHT22;8356;51.214;3.270;2022-07-01T14:40:50;589.70;2432.00
16491;DHT22;8356;51.214;3.270;2022-07-01T14:43:15;589.70;2432.00
16491;DHT22;8356;51.214;3.270;2022-07-01T14:45:41;614.40;2432.00
16491;DHT22;8356;51.214;3.270;2022-07-01T14:48:07;589.70;2432.00
16491;DHT22;8356;51.214;3.270;2022-07-01T14:50:33;589.60;2432.00
16491;DHT22;8356;51.214;3.270;2022-07-01T14:53:00;589.40;2432.00
16491;DHT22;8356;51.214;3.270;2022-07-01T14:55:28;589.10;2432.00
16491;DHT22;8356;51.214;3.270;2022-07-01T14:57:54;589.30;2432.00
16491;DHT22;8356;51.214;3.270;2022-07-01T15:00:19;589.30;2432.00
16491;DHT22;8356;51.214;3.270;2022-07-01T15:02:45;589.30;2432.00
16491;DHT22;8356;51.214;3.270;2022-07-01T15:05:10;589.30;2432.00
16491;DHT22;8356;51.214;3.270;2022-07-01T15:07:37;589.30;2432.00
16491;DHT22;8356;51.214;3.270;2022-07-01T15:10:03;589.30;2432.00
16491;DHT22;8356;51.214;3.270;2022-07-01T15:12:29;589.10;2432.00
16491;DHT22;8356;51.214;3.270;2022-07-01T15:14:55;589.00;2432.00
16491;DHT22;8356;51.214;3.270;2022-07-01T15:17:24;589.00;2432.00